createdAt,value
2023-02-27T00:01:51.684Z,-0.46
2023-02-27T00:04:18.444Z,-0.57
2023-02-27T00:06:45.084Z,-0.55
2023-02-27T00:09:11.719Z,-0.56
2023-02-27T00:11:38.337Z,-0.56
2023-02-27T00:14:06.510Z,-0.80
2023-02-27T00:16:33.173Z,-0.75
2023-02-27T00:18:59.844Z,-0.74
2023-02-27T00:21:27.523Z,-0.57
2023-02-27T00:23:54.370Z,-0.54
2023-02-27T00:26:21.064Z,-0.56
2023-02-27T00:28:47.697Z,-0.56
2023-02-27T00:31:14.691Z,-0.42
2023-02-27T00:33:41.696Z,-0.35
2023-02-27T00:36:08.425Z,-0.28
2023-02-27T00:38:35.184Z,-0.32
2023-02-27T00:41:01.979Z,-0.35
2023-02-27T00:43:28.579Z,-0.37
2023-02-27T00:45:55.222Z,-0.41
2023-02-27T00:48:22.022Z,-0.60
2023-02-27T00:50:49.933Z,-0.53
2023-02-27T00:53:16.909Z,-0.75
2023-02-27T00:55:43.679Z,-0.83
2023-02-27T00:58:10.396Z,-0.65
2023-02-27T01:00:37.195Z,-0.72
2023-02-27T01:03:03.980Z,-0.79
2023-02-27T01:05:30.839Z,-0.79
2023-02-27T01:07:57.676Z,-1.03
2023-02-27T01:10:24.398Z,-1.03
2023-02-27T01:12:51.613Z,-1.28
2023-02-27T01:15:18.486Z,-1.18
2023-02-27T01:17:45.396Z,-0.99
2023-02-27T01:20:12.889Z,-1.19
2023-02-27T01:22:40.038Z,-1.24
2023-02-27T01:25:07.556Z,-1.26
2023-02-27T01:27:34.311Z,-1.21
2023-02-27T01:30:01.175Z,-1.51
2023-02-27T01:32:28.055Z,-1.44
2023-02-27T01:34:54.724Z,-1.42
2023-02-27T01:37:21.441Z,-1.39
2023-02-27T01:39:48.135Z,-1.25
2023-02-27T01:42:26.784Z,-1.33
2023-02-27T01:45:19.117Z,-1.24
2023-02-27T01:47:50.337Z,-1.47
2023-02-27T01:50:19.108Z,-1.43
2023-02-27T01:52:52.521Z,-1.43
2023-02-27T01:55:20.274Z,-1.32
2023-02-27T01:57:49.619Z,-1.29
2023-02-27T02:00:17.338Z,-1.23
2023-02-27T02:03:09.104Z,-1.42
2023-02-27T02:05:35.804Z,-1.33
2023-02-27T02:08:03.879Z,-1.38
2023-02-27T02:10:32.471Z,-1.35
2023-02-27T02:12:59.525Z,-1.58
2023-02-27T02:15:36.691Z,-1.41
2023-02-27T02:18:38.191Z,-1.38
2023-02-27T02:21:50.195Z,-1.39
2023-02-27T02:24:29.389Z,-1.21
2023-02-27T02:27:11.178Z,-1.11
2023-02-27T02:30:22.147Z,-0.85
2023-02-27T02:33:19.061Z,-1.00
2023-02-27T02:36:28.496Z,-1.05
2023-02-27T02:39:25.510Z,-1.09
2023-02-27T02:42:20.261Z,-1.11
2023-02-27T02:45:05.693Z,-0.81
2023-02-27T02:48:08.625Z,-1.14
2023-02-27T02:51:01.435Z,-1.11
2023-02-27T02:53:41.926Z,-1.08
2023-02-27T02:56:43.345Z,-1.13
2023-02-27T02:59:22.292Z,-1.14
2023-02-27T03:02:06.598Z,-1.11
2023-02-27T03:04:35.632Z,-1.08
2023-02-27T03:07:17.058Z,-1.02
2023-02-27T03:10:08.301Z,-1.05
2023-02-27T03:12:40.355Z,-1.06
2023-02-27T03:15:23.242Z,-0.99
2023-02-27T03:18:15.080Z,-0.90
2023-02-27T03:20:56.978Z,-0.98
2023-02-27T03:23:29.789Z,-0.94
2023-02-27T03:25:58.353Z,-0.79
2023-02-27T03:28:30.090Z,-0.89
2023-02-27T03:31:01.688Z,-0.89
2023-02-27T03:33:34.385Z,-0.75
2023-02-27T03:36:28.740Z,-0.71
2023-02-27T03:39:08.781Z,-0.60
2023-02-27T03:41:37.097Z,-0.70
2023-02-27T03:44:03.816Z,-0.87
2023-02-27T03:46:30.970Z,-0.55
2023-02-27T03:48:57.760Z,-0.73
2023-02-27T03:51:26.174Z,-0.95
2023-02-27T03:54:30.429Z,-0.94
2023-02-27T03:57:02.080Z,-0.76
2023-02-27T03:59:31.129Z,-0.62
2023-02-27T04:02:00.696Z,-0.72
2023-02-27T04:04:29.258Z,-0.85
2023-02-27T04:07:02.282Z,-0.97
2023-02-27T04:09:55.467Z,-0.90
2023-02-27T04:12:37.317Z,-0.79
2023-02-27T04:15:17.839Z,-0.94
2023-02-27T04:17:58.812Z,-0.91
2023-02-27T04:20:34.562Z,-0.90
2023-02-27T04:23:45.821Z,-0.98
2023-02-27T04:26:15.070Z,-0.86
2023-02-27T04:28:48.468Z,-0.73
2023-02-27T04:31:31.336Z,-0.91
2023-02-27T04:34:15.593Z,-0.98
2023-02-27T04:36:53.013Z,-0.85
2023-02-27T04:39:52.191Z,-0.74
2023-02-27T04:42:28.819Z,-0.64
2023-02-27T04:45:02.854Z,-0.60
2023-02-27T04:47:44.280Z,-0.85
2023-02-27T04:50:34.019Z,-0.80
2023-02-27T04:53:09.372Z,-0.92
2023-02-27T04:55:50.777Z,-0.95
2023-02-27T04:58:50.732Z,-1.18
2023-02-27T05:01:26.700Z,-0.98
2023-02-27T05:03:54.882Z,-0.95
2023-02-27T05:06:27.443Z,-0.85
2023-02-27T05:09:06.684Z,-0.80
2023-02-27T05:11:41.503Z,-0.84
2023-02-27T05:14:42.883Z,-0.80
2023-02-27T05:17:26.264Z,-0.57
2023-02-27T05:19:52.956Z,-0.71
2023-02-27T05:22:47.598Z,-0.92
2023-02-27T05:25:28.932Z,-0.88
2023-02-27T05:28:12.845Z,-0.91
2023-02-27T05:31:05.471Z,-0.82
2023-02-27T05:34:03.121Z,-0.85
2023-02-27T05:36:46.004Z,-0.96
2023-02-27T05:39:16.054Z,-0.64
2023-02-27T05:41:53.115Z,-0.73
2023-02-27T05:44:34.997Z,-0.73
2023-02-27T05:47:14.042Z,-0.95
2023-02-27T05:50:10.377Z,-0.92
2023-02-27T05:52:38.620Z,-0.94
2023-02-27T05:55:23.394Z,-1.15
2023-02-27T05:58:27.172Z,-0.93
2023-02-27T06:01:07.034Z,-0.99
2023-02-27T06:03:36.113Z,-0.99
2023-02-27T06:06:06.677Z,-0.94
2023-02-27T06:08:33.522Z,-0.89
2023-02-27T06:11:00.140Z,-1.00
2023-02-27T06:13:26.776Z,-1.00
2023-02-27T06:15:53.558Z,-0.87
2023-02-27T06:18:20.281Z,-0.75
2023-02-27T06:20:47.760Z,-0.71
2023-02-27T06:23:14.508Z,-0.79
2023-02-27T06:25:41.444Z,-0.91
2023-02-27T06:28:08.335Z,-1.09
2023-02-27T06:30:36.161Z,-0.93
2023-02-27T06:33:03.465Z,-0.91
2023-02-27T06:35:30.721Z,-0.79
2023-02-27T06:37:57.950Z,-0.65
2023-02-27T06:40:25.428Z,-1.01
2023-02-27T06:42:52.150Z,-0.85
2023-02-27T06:45:18.904Z,-0.66
2023-02-27T06:47:45.614Z,-0.60
2023-02-27T06:50:13.794Z,-0.58
2023-02-27T06:52:40.884Z,-0.57
2023-02-27T06:55:09.064Z,-0.47
2023-02-27T06:57:35.788Z,-0.51
2023-02-27T07:00:04.332Z,-0.48
2023-02-27T07:02:31.348Z,-0.45
2023-02-27T07:04:58.140Z,-0.53
2023-02-27T07:07:35.354Z,-0.51
2023-02-27T07:10:06.505Z,-0.36
2023-02-27T07:12:33.138Z,-0.24
2023-02-27T07:14:59.775Z,-0.33
2023-02-27T07:17:26.452Z,-0.36
2023-02-27T07:19:55.787Z,-0.26
2023-02-27T07:22:22.419Z,-0.20
2023-02-27T07:24:49.315Z,-0.30
2023-02-27T07:27:15.997Z,-0.28
2023-02-27T07:29:42.637Z,-0.35
2023-02-27T07:32:09.387Z,-0.20
2023-02-27T07:34:36.225Z,-0.25
2023-02-27T07:37:03.057Z,0.02
2023-02-27T07:39:29.729Z,0.18
2023-02-27T07:41:56.463Z,0.30
2023-02-27T07:44:23.071Z,0.32
2023-02-27T07:46:49.853Z,0.36
2023-02-27T07:49:16.551Z,0.31
2023-02-27T07:51:43.145Z,0.69
2023-02-27T07:54:09.805Z,0.52
2023-02-27T07:56:36.493Z,0.32
2023-02-27T07:59:03.151Z,0.47
2023-02-27T08:01:29.835Z,0.11
2023-02-27T08:03:57.311Z,0.11
2023-02-27T08:06:24.188Z,0.36
2023-02-27T08:08:51.564Z,0.82
2023-02-27T08:11:18.603Z,0.69
2023-02-27T08:14:01.736Z,0.44
2023-02-27T08:16:30.469Z,0.54
2023-02-27T08:18:58.164Z,0.68
2023-02-27T08:21:25.569Z,0.76
2023-02-27T08:23:52.440Z,0.93
2023-02-27T08:26:19.074Z,0.97
2023-02-27T08:28:45.958Z,0.81
2023-02-27T08:31:12.829Z,1.17
2023-02-27T08:33:40.252Z,1.63
2023-02-27T08:36:07.385Z,1.92
2023-02-27T08:38:34.064Z,1.59
2023-02-27T08:41:00.734Z,1.33
2023-02-27T08:43:27.375Z,1.52
2023-02-27T08:45:54.131Z,1.57
2023-02-27T08:48:20.887Z,1.54
2023-02-27T08:50:47.767Z,1.66
2023-02-27T08:53:14.631Z,1.53
2023-02-27T08:55:41.910Z,1.51
2023-02-27T08:58:09.592Z,1.10
2023-02-27T09:00:36.306Z,1.38
2023-02-27T09:03:03.176Z,1.28
2023-02-27T09:05:29.861Z,1.57
2023-02-27T09:07:56.474Z,1.74
2023-02-27T09:10:23.288Z,1.57
2023-02-27T09:12:49.906Z,1.70
2023-02-27T09:15:16.816Z,1.33
2023-02-27T09:17:43.729Z,1.36
2023-02-27T09:20:11.616Z,1.27
2023-02-27T09:22:39.175Z,1.47
2023-02-27T09:25:09.185Z,1.40
2023-02-27T09:27:35.935Z,2.13
2023-02-27T09:30:02.609Z,1.91
2023-02-27T09:32:29.384Z,1.92
2023-02-27T09:34:56.124Z,2.16
2023-02-27T09:37:22.746Z,2.01
2023-02-27T09:39:49.408Z,1.78
2023-02-27T09:42:22.908Z,1.96
2023-02-27T09:44:52.835Z,1.59
2023-02-27T09:47:25.829Z,2.18
2023-02-27T09:50:27.408Z,2.17
2023-02-27T09:52:54.465Z,2.30
2023-02-27T09:55:23.014Z,2.26
2023-02-27T09:57:54.466Z,2.34
2023-02-27T10:00:45.292Z,2.42
2023-02-27T10:03:30.532Z,2.47
2023-02-27T10:06:09.967Z,2.34
2023-02-27T10:08:48.969Z,2.25
2023-02-27T10:11:24.604Z,2.69
2023-02-27T10:14:07.103Z,2.57
2023-02-27T10:16:34.851Z,2.53
2023-02-27T10:19:05.724Z,2.44
2023-02-27T10:21:41.564Z,2.07
2023-02-27T10:24:21.828Z,2.33
2023-02-27T10:26:49.481Z,2.73
2023-02-27T10:29:21.292Z,2.68
2023-02-27T10:31:54.464Z,3.26
2023-02-27T10:34:23.386Z,3.65
2023-02-27T10:36:50.037Z,3.19
2023-02-27T10:39:18.876Z,3.35
2023-02-27T10:41:46.968Z,3.62
2023-02-27T10:44:17.484Z,4.04
2023-02-27T10:46:45.098Z,4.15
2023-02-27T10:49:19.158Z,3.93
2023-02-27T10:51:48.009Z,4.09
2023-02-27T10:54:20.555Z,3.94
2023-02-27T10:56:58.738Z,3.81
2023-02-27T10:59:34.394Z,3.73
2023-02-27T11:02:04.723Z,3.88
2023-02-27T11:04:38.745Z,3.80
2023-02-27T11:07:10.041Z,3.98
2023-02-27T11:09:37.772Z,3.92
2023-02-27T11:12:32.434Z,4.28
2023-02-27T11:15:01.782Z,4.08
2023-02-27T11:17:32.161Z,4.07
2023-02-27T11:20:01.051Z,4.12
2023-02-27T11:22:30.905Z,3.91
2023-02-27T11:25:22.509Z,3.21
2023-02-27T11:27:49.917Z,3.90
2023-02-27T11:30:30.409Z,4.12
2023-02-27T11:33:00.215Z,4.01
2023-02-27T11:35:39.666Z,3.80
2023-02-27T11:38:17.629Z,4.13
2023-02-27T11:41:13.678Z,4.20
2023-02-27T11:43:52.585Z,4.16
2023-02-27T11:46:46.495Z,4.42
2023-02-27T11:49:17.776Z,4.56
2023-02-27T11:52:09.426Z,4.47
2023-02-27T11:54:39.064Z,4.34
2023-02-27T11:57:25.637Z,4.42
2023-02-27T11:59:57.113Z,4.36
2023-02-27T12:02:39.431Z,4.91
2023-02-27T12:05:12.116Z,3.85
2023-02-27T12:07:46.528Z,3.60
2023-02-27T12:10:20.520Z,3.26
2023-02-27T12:12:52.221Z,3.20
2023-02-27T12:15:42.226Z,3.29
2023-02-27T12:18:28.551Z,3.30
2023-02-27T12:21:10.870Z,3.36
2023-02-27T12:23:45.121Z,3.91
2023-02-27T12:26:33.192Z,3.91
2023-02-27T12:28:59.974Z,4.13
2023-02-27T12:31:35.601Z,4.27
2023-02-27T12:34:05.419Z,4.74
2023-02-27T12:36:32.146Z,4.38
2023-02-27T12:38:58.953Z,4.17
2023-02-27T12:42:12.348Z,4.01
2023-02-27T12:45:07.054Z,4.09
2023-02-27T12:48:10.672Z,4.36
2023-02-27T12:51:17.002Z,4.68
2023-02-27T12:53:50.851Z,5.02
2023-02-27T12:56:23.797Z,4.67
2023-02-27T12:59:03.159Z,4.67
2023-02-27T13:01:54.452Z,4.82
2023-02-27T13:04:44.329Z,5.52
2023-02-27T13:07:38.122Z,5.79
2023-02-27T13:10:19.516Z,5.71
2023-02-27T13:13:22.949Z,5.52
2023-02-27T13:15:54.790Z,5.23
2023-02-27T13:18:41.744Z,4.77
2023-02-27T13:21:32.690Z,4.49
2023-02-27T13:24:25.083Z,4.45
2023-02-27T13:27:17.856Z,4.29
2023-02-27T13:30:10.387Z,4.23
2023-02-27T13:33:04.845Z,4.31
2023-02-27T13:35:56.489Z,4.24
2023-02-27T13:38:48.795Z,4.26
2023-02-27T13:41:21.587Z,3.61
2023-02-27T13:43:52.731Z,3.87
2023-02-27T13:46:26.506Z,4.06
2023-02-27T13:48:54.635Z,4.35
2023-02-27T13:51:36.449Z,4.61
2023-02-27T13:54:14.986Z,4.49
2023-02-27T13:56:46.109Z,4.07
2023-02-27T13:59:28.971Z,4.03
2023-02-27T14:01:58.356Z,3.76
2023-02-27T14:04:28.137Z,4.05
2023-02-27T14:07:07.508Z,4.57
2023-02-27T14:09:39.086Z,4.30
2023-02-27T14:12:19.204Z,4.17
2023-02-27T14:14:49.488Z,4.19
2023-02-27T14:17:35.028Z,4.08
2023-02-27T14:20:24.961Z,4.48
2023-02-27T14:23:23.576Z,4.88
2023-02-27T14:25:50.328Z,5.23
2023-02-27T14:28:55.411Z,5.48
2023-02-27T14:31:32.158Z,4.91
2023-02-27T14:34:01.073Z,5.31
2023-02-27T14:36:32.117Z,4.55
2023-02-27T14:39:00.901Z,4.94
2023-02-27T14:41:45.345Z,4.61
2023-02-27T14:44:25.147Z,5.05
2023-02-27T14:46:55.416Z,5.58
2023-02-27T14:49:24.822Z,5.93
2023-02-27T14:51:52.234Z,5.84
2023-02-27T14:54:26.575Z,5.73
2023-02-27T14:57:05.427Z,5.89
2023-02-27T14:59:53.755Z,6.22
2023-02-27T15:02:27.328Z,6.03
2023-02-27T15:05:12.129Z,6.09
2023-02-27T15:07:39.286Z,5.85
2023-02-27T15:10:09.397Z,6.02
2023-02-27T15:12:39.986Z,5.80
2023-02-27T15:15:08.500Z,5.31
2023-02-27T15:17:41.575Z,5.90
2023-02-27T15:20:28.180Z,5.76
2023-02-27T15:22:54.834Z,6.03
2023-02-27T15:25:34.546Z,5.88
2023-02-27T15:28:18.034Z,5.33
2023-02-27T15:30:50.712Z,5.30
2023-02-27T15:33:18.579Z,5.12
2023-02-27T15:35:46.373Z,5.51
2023-02-27T15:38:29.364Z,5.31
2023-02-27T15:40:58.159Z,5.15
2023-02-27T15:43:27.345Z,5.15
2023-02-27T15:45:55.137Z,4.97
2023-02-27T15:48:22.695Z,5.17
2023-02-27T15:50:53.971Z,5.00
2023-02-27T15:53:23.526Z,4.57
2023-02-27T15:55:53.839Z,4.52
2023-02-27T15:58:30.240Z,4.66
2023-02-27T16:01:07.250Z,4.70
2023-02-27T16:03:38.789Z,4.51
2023-02-27T16:06:18.979Z,4.46
2023-02-27T16:08:53.002Z,4.32
2023-02-27T16:11:25.591Z,4.36
2023-02-27T16:13:53.252Z,4.14
2023-02-27T16:16:19.876Z,4.11
2023-02-27T16:18:52.859Z,4.05
2023-02-27T16:21:22.522Z,4.00
2023-02-27T16:23:49.396Z,3.80
2023-02-27T16:26:28.313Z,3.84
2023-02-27T16:28:56.223Z,3.59
2023-02-27T16:31:24.451Z,3.58
2023-02-27T16:33:51.669Z,3.59
2023-02-27T16:36:25.297Z,3.58
2023-02-27T16:38:52.029Z,3.48
2023-02-27T16:41:23.393Z,3.39
2023-02-27T16:43:53.149Z,3.19
2023-02-27T16:46:21.746Z,3.01
2023-02-27T16:48:54.103Z,3.09
2023-02-27T16:51:23.834Z,3.09
2023-02-27T16:53:55.218Z,3.10
2023-02-27T16:56:37.293Z,3.01
2023-02-27T16:59:04.988Z,2.98
2023-02-27T17:01:33.953Z,2.90
2023-02-27T17:04:00.993Z,2.80
2023-02-27T17:06:28.222Z,2.77
2023-02-27T17:08:55.297Z,2.72
2023-02-27T17:11:22.230Z,2.65
2023-02-27T17:13:48.915Z,2.52
2023-02-27T17:16:16.394Z,2.51
2023-02-27T17:18:43.119Z,2.49
2023-02-27T17:21:09.762Z,2.35
2023-02-27T17:23:36.414Z,2.35
2023-02-27T17:26:03.321Z,2.26
2023-02-27T17:28:29.930Z,2.13
2023-02-27T17:30:56.694Z,2.14
2023-02-27T17:33:23.396Z,2.02
2023-02-27T17:35:50.417Z,1.88
2023-02-27T17:38:17.061Z,1.93
2023-02-27T17:40:43.695Z,1.93
2023-02-27T17:43:10.373Z,1.82
2023-02-27T17:45:38.458Z,1.94
2023-02-27T17:48:05.539Z,1.98
2023-02-27T17:50:32.177Z,1.80
2023-02-27T17:52:58.780Z,1.66
2023-02-27T17:55:25.404Z,1.66
2023-02-27T17:57:52.044Z,1.67
2023-02-27T18:00:19.030Z,1.79
2023-02-27T18:02:45.893Z,1.24
2023-02-27T18:05:12.671Z,1.41
2023-02-27T18:07:40.016Z,1.38
2023-02-27T18:10:08.587Z,1.06
2023-02-27T18:12:36.981Z,1.10
2023-02-27T18:15:04.313Z,1.41
2023-02-27T18:17:30.949Z,1.31
2023-02-27T18:19:57.665Z,1.32
2023-02-27T18:22:24.513Z,1.63
2023-02-27T18:24:55.143Z,1.49
2023-02-27T18:27:22.267Z,1.44
2023-02-27T18:29:49.755Z,1.27
2023-02-27T18:32:17.107Z,1.32
2023-02-27T18:34:44.099Z,1.48
2023-02-27T18:37:10.900Z,1.30
2023-02-27T18:39:37.653Z,1.34
2023-02-27T18:42:06.468Z,1.10
2023-02-27T18:44:33.471Z,1.07
2023-02-27T18:47:00.098Z,1.04
2023-02-27T18:49:29.587Z,1.05
2023-02-27T18:51:56.630Z,1.03
2023-02-27T18:54:23.364Z,1.17
2023-02-27T18:56:51.033Z,0.65
2023-02-27T18:59:17.618Z,0.41
2023-02-27T19:01:44.451Z,0.59
2023-02-27T19:04:11.135Z,0.73
2023-02-27T19:06:40.544Z,1.03
2023-02-27T19:09:08.874Z,0.78
2023-02-27T19:11:35.814Z,1.14
2023-02-27T19:14:05.743Z,1.06
2023-02-27T19:16:33.348Z,0.94
2023-02-27T19:19:01.623Z,0.98
2023-02-27T19:21:28.623Z,0.52
2023-02-27T19:23:55.673Z,0.20
2023-02-27T19:26:23.147Z,0.31
2023-02-27T19:28:54.206Z,0.38
2023-02-27T19:31:23.341Z,0.55
2023-02-27T19:33:50.277Z,0.36
2023-02-27T19:36:18.830Z,0.35
2023-02-27T19:38:45.462Z,0.55
2023-02-27T19:41:14.089Z,0.31
2023-02-27T19:43:41.156Z,0.50
2023-02-27T19:46:14.240Z,0.36
2023-02-27T19:48:41.209Z,0.41
2023-02-27T19:51:10.300Z,0.66
2023-02-27T19:53:38.724Z,0.42
2023-02-27T19:56:12.148Z,-0.13
2023-02-27T19:58:38.866Z,-0.10
2023-02-27T20:01:06.134Z,-0.40
2023-02-27T20:03:33.441Z,-0.69
2023-02-27T20:06:00.549Z,0.01
2023-02-27T20:08:27.470Z,0.01
2023-02-27T20:10:55.971Z,-0.04
2023-02-27T20:13:22.746Z,0.26
2023-02-27T20:16:01.062Z,0.52
2023-02-27T20:18:29.131Z,0.24
2023-02-27T20:21:09.931Z,0.44
2023-02-27T20:23:39.539Z,0.47
2023-02-27T20:26:18.327Z,0.41
2023-02-27T20:28:46.301Z,0.22
2023-02-27T20:31:15.658Z,-0.24
2023-02-27T20:33:42.709Z,-0.36
2023-02-27T20:36:11.263Z,-0.16
2023-02-27T20:38:39.241Z,-0.05
2023-02-27T20:41:10.175Z,-0.05
2023-02-27T20:43:37.580Z,-0.19
2023-02-27T20:46:05.987Z,-0.20
2023-02-27T20:48:33.399Z,0.06
2023-02-27T20:51:11.985Z,0.37
2023-02-27T20:53:40.817Z,0.08
2023-02-27T20:56:09.236Z,-0.09
2023-02-27T20:58:36.309Z,0.15
2023-02-27T21:01:08.080Z,-0.04
2023-02-27T21:03:38.564Z,0.06
2023-02-27T21:06:07.850Z,0.27
2023-02-27T21:08:40.879Z,-0.01
2023-02-27T21:11:17.119Z,-0.19
2023-02-27T21:13:43.890Z,-0.00
2023-02-27T21:16:11.699Z,-0.28
2023-02-27T21:18:38.901Z,-0.29
2023-02-27T21:21:08.130Z,-0.15
2023-02-27T21:23:35.806Z,-0.25
2023-02-27T21:26:04.841Z,-0.14
2023-02-27T21:28:31.488Z,-0.20
2023-02-27T21:30:58.099Z,-0.50
2023-02-27T21:33:24.831Z,-0.41
2023-02-27T21:35:51.481Z,-0.31
2023-02-27T21:38:18.156Z,-0.55
2023-02-27T21:40:44.863Z,-0.34
2023-02-27T21:43:11.729Z,-0.53
2023-02-27T21:45:38.336Z,-0.69
2023-02-27T21:48:05.249Z,-0.47
2023-02-27T21:50:32.047Z,-0.73
2023-02-27T21:52:58.711Z,-0.57
2023-02-27T21:55:25.311Z,-0.70
2023-02-27T21:57:52.003Z,-0.51
2023-02-27T22:00:19.353Z,-0.59
2023-02-27T22:02:46.184Z,-0.50
2023-02-27T22:05:12.841Z,-0.64
2023-02-27T22:07:39.656Z,-0.67
2023-02-27T22:10:06.546Z,-0.70
2023-02-27T22:12:33.257Z,-0.84
2023-02-27T22:14:59.932Z,-0.89
2023-02-27T22:17:26.794Z,-0.90
2023-02-27T22:19:53.586Z,-1.08
2023-02-27T22:22:20.168Z,-1.12
2023-02-27T22:24:46.917Z,-1.00
2023-02-27T22:27:13.533Z,-1.06
2023-02-27T22:29:42.207Z,-1.04
2023-02-27T22:32:09.545Z,-1.06
2023-02-27T22:34:36.210Z,-0.94
2023-02-27T22:37:02.862Z,-0.96
2023-02-27T22:39:29.540Z,-0.96
2023-02-27T22:41:56.951Z,-0.92
2023-02-27T22:44:23.955Z,-0.78
2023-02-27T22:46:50.888Z,-0.82
2023-02-27T22:49:20.963Z,-1.15
2023-02-27T22:51:50.339Z,-1.45
2023-02-27T22:54:19.357Z,-1.36
2023-02-27T22:56:49.493Z,-1.28
2023-02-27T22:59:16.170Z,-1.01
2023-02-27T23:01:42.977Z,-0.94
2023-02-27T23:04:11.287Z,-0.90
2023-02-27T23:06:40.070Z,-0.72
2023-02-27T23:09:09.280Z,-0.70
2023-02-27T23:11:36.014Z,-0.41
2023-02-27T23:14:02.663Z,-0.33
2023-02-27T23:16:29.641Z,-0.50
2023-02-27T23:18:58.411Z,-0.81
2023-02-27T23:21:29.072Z,-0.82
2023-02-27T23:23:56.132Z,-0.89
2023-02-27T23:26:23.258Z,-1.07
2023-02-27T23:28:50.114Z,-1.08
2023-02-27T23:31:16.794Z,-1.24
2023-02-27T23:33:43.758Z,-1.08
2023-02-27T23:36:10.434Z,-1.07
2023-02-27T23:38:37.220Z,-1.10
2023-02-27T23:41:08.616Z,-1.24
2023-02-27T23:43:35.995Z,-1.11
2023-02-27T23:46:10.680Z,-1.11
2023-02-27T23:48:37.679Z,-1.16
2023-02-27T23:51:06.452Z,-1.06
2023-02-27T23:53:34.338Z,-1.03
2023-02-27T23:56:01.090Z,-1.12
2023-02-27T23:58:27.802Z,-0.91
